createdAt,value
2022-10-17T00:01:03.356Z,99613.06
2022-10-17T00:04:11.883Z,99612.81
2022-10-17T00:10:46.717Z,99585.88
2022-10-17T00:13:23.896Z,99577.16
2022-10-17T00:16:41.712Z,99568.19
2022-10-17T00:19:30.950Z,99556.81
2022-10-17T00:22:13.878Z,99554.63
2022-10-17T00:24:51.304Z,99563.84
2022-10-17T00:27:26.674Z,99567.41
2022-10-17T00:30:00.227Z,99570.66
2022-10-17T00:32:42.696Z,99577.19
2022-10-17T00:35:18.687Z,99585.88
2022-10-17T00:37:59.304Z,99597.81
2022-10-17T00:40:48.156Z,99608.69
2022-10-17T00:43:27.921Z,99610.56
2022-10-17T00:46:00.887Z,99606.88
2022-10-17T00:49:15.468Z,99606.47
2022-10-17T00:52:12.974Z,99606.53
2022-10-17T00:55:22.018Z,99604.38
2022-10-17T00:58:00.428Z,99599.22
2022-10-17T01:00:52.947Z,99593.31
2022-10-17T01:03:28.607Z,99591.16
2022-10-17T01:06:04.651Z,99590.75
2022-10-17T01:09:03.371Z,99580.25
2022-10-17T01:12:23.892Z,99590.00
2022-10-17T01:15:50.150Z,99590.81
2022-10-17T01:18:22.311Z,99577.72
2022-10-17T01:21:11.362Z,99578.28
2022-10-17T01:25:03.400Z,99581.09
2022-10-17T01:27:48.929Z,99583.31
2022-10-17T01:30:56.341Z,99579.16
2022-10-17T01:33:59.601Z,99574.44
2022-10-17T01:36:55.505Z,99555.69
2022-10-17T01:43:16.423Z,99559.72
2022-10-17T01:45:56.979Z,99554.53
2022-10-17T01:48:45.198Z,99549.44
2022-10-17T01:51:50.499Z,99546.22
2022-10-17T01:54:44.460Z,99550.38
2022-10-17T01:57:28.381Z,99549.47
2022-10-17T01:59:59.527Z,99550.31
2022-10-17T02:02:28.571Z,99545.78
2022-10-17T02:05:02.871Z,99541.28
2022-10-17T02:07:51.430Z,99541.63
2022-10-17T02:10:31.646Z,99534.09
2022-10-17T02:13:16.368Z,99537.94
2022-10-17T02:15:54.892Z,99546.13
2022-10-17T02:18:28.013Z,99534.97
2022-10-17T02:21:19.885Z,99541.47
2022-10-17T02:23:58.641Z,99541.22
2022-10-17T02:26:43.047Z,99558.06
2022-10-17T02:29:24.650Z,99554.94
2022-10-17T02:32:11.308Z,99550.28
2022-10-17T02:34:51.747Z,99552.81
2022-10-17T02:37:24.678Z,99553.94
2022-10-17T02:40:03.930Z,99556.06
2022-10-17T02:42:49.820Z,99550.97
2022-10-17T02:45:20.850Z,99549.47
2022-10-17T02:47:57.640Z,99550.97
2022-10-17T02:50:42.840Z,99556.66
2022-10-17T02:53:16.927Z,99551.81
2022-10-17T02:56:00.274Z,99551.03
2022-10-17T02:58:43.781Z,99544.75
2022-10-17T03:01:18.807Z,99547.75
2022-10-17T03:03:48.060Z,99547.72
2022-10-17T03:06:17.861Z,99541.53
2022-10-17T03:08:48.028Z,99542.81
2022-10-17T03:11:25.893Z,99530.06
2022-10-17T03:13:56.094Z,99526.81
2022-10-17T03:16:26.529Z,99526.75
2022-10-17T03:18:56.880Z,99522.91
2022-10-17T03:21:27.883Z,99521.88
2022-10-17T03:24:01.711Z,99507.38
2022-10-17T03:26:30.830Z,99509.63
2022-10-17T03:29:02.091Z,99513.66
2022-10-17T03:31:34.254Z,99508.56
2022-10-17T03:34:05.027Z,99506.13
2022-10-17T03:36:42.322Z,99504.72
2022-10-17T03:39:16.383Z,99496.84
2022-10-17T03:41:46.902Z,99498.72
2022-10-17T03:44:17.422Z,99502.56
2022-10-17T03:46:46.499Z,99504.25
2022-10-17T03:49:16.079Z,99504.16
2022-10-17T03:51:47.434Z,99505.69
2022-10-17T03:54:18.513Z,99510.69
2022-10-17T03:56:50.349Z,99503.25
2022-10-17T03:59:22.586Z,99503.72
2022-10-17T04:02:08.904Z,99503.84
2022-10-17T04:04:39.894Z,99498.44
2022-10-17T04:07:11.535Z,99499.94
2022-10-17T04:09:46.243Z,99500.50
2022-10-17T04:12:23.333Z,99485.19
2022-10-17T04:14:53.414Z,99499.78
2022-10-17T04:17:26.214Z,99489.88
2022-10-17T04:19:56.293Z,99484.59
2022-10-17T04:22:26.479Z,99485.88
2022-10-17T04:24:55.624Z,99465.84
2022-10-17T04:27:45.966Z,99444.44
2022-10-17T04:30:15.752Z,99428.16
2022-10-17T04:32:46.729Z,99448.34
2022-10-17T04:35:24.648Z,99453.06
2022-10-17T04:38:04.263Z,99449.03
2022-10-17T04:40:39.337Z,99446.38
2022-10-17T04:43:11.117Z,99447.25
2022-10-17T04:45:47.404Z,99451.34
2022-10-17T04:48:15.975Z,99429.69
2022-10-17T04:50:54.728Z,99423.50
2022-10-17T04:53:39.049Z,99435.31
2022-10-17T04:56:14.229Z,99429.72
2022-10-17T04:58:44.224Z,99451.59
2022-10-17T05:01:16.450Z,99446.22
2022-10-17T05:03:55.889Z,99425.41
2022-10-17T05:06:27.372Z,99419.47
2022-10-17T05:09:16.047Z,99436.66
2022-10-17T05:11:46.541Z,99437.19
2022-10-17T05:14:17.199Z,99427.63
2022-10-17T05:16:47.284Z,99416.75
2022-10-17T05:19:16.512Z,99413.16
2022-10-17T05:21:52.018Z,99415.13
2022-10-17T05:24:23.052Z,99414.56
2022-10-17T05:26:53.038Z,99412.22
2022-10-17T05:29:23.821Z,99421.63
2022-10-17T05:32:11.452Z,99420.25
2022-10-17T05:34:48.294Z,99403.84
2022-10-17T05:37:24.957Z,99406.19
2022-10-17T05:40:05.539Z,99399.81
2022-10-17T05:43:05.651Z,99403.41
2022-10-17T05:45:46.046Z,99409.13
2022-10-17T05:48:23.680Z,99386.72
2022-10-17T05:51:06.433Z,99383.44
2022-10-17T05:53:44.589Z,99374.69
2022-10-17T05:56:30.069Z,99360.28
2022-10-17T05:59:01.070Z,99361.19
2022-10-17T06:02:05.422Z,99351.28
2022-10-17T06:04:50.214Z,99356.03
2022-10-17T06:07:24.259Z,99359.78
2022-10-17T06:10:04.331Z,99358.75
2022-10-17T06:12:51.203Z,99344.09
2022-10-17T06:15:36.003Z,99344.59
2022-10-17T06:18:17.959Z,99341.00
2022-10-17T06:21:06.504Z,99346.50
2022-10-17T06:23:47.390Z,99346.00
2022-10-17T06:26:28.429Z,99332.91
2022-10-17T06:29:18.625Z,99335.97
2022-10-17T06:32:09.935Z,99322.09
2022-10-17T06:35:06.428Z,99328.88
2022-10-17T06:37:53.781Z,99321.94
2022-10-17T06:40:44.217Z,99322.47
2022-10-17T06:43:36.620Z,99311.44
2022-10-17T06:47:02.617Z,99305.13
2022-10-17T06:50:05.892Z,99314.19
2022-10-17T06:53:16.186Z,99322.16
2022-10-17T06:56:19.220Z,99316.75
2022-10-17T06:59:42.487Z,99313.13
2022-10-17T07:02:35.780Z,99309.88
2022-10-17T07:05:46.789Z,99304.47
2022-10-17T07:08:19.439Z,99308.50
2022-10-17T07:10:54.344Z,99296.84
2022-10-17T07:13:34.421Z,99305.41
2022-10-17T07:16:34.490Z,99303.88
2022-10-17T07:19:20.835Z,99304.06
2022-10-17T07:21:57.168Z,99288.81
2022-10-17T07:27:47.066Z,99280.06
2022-10-17T07:30:24.927Z,99281.28
2022-10-17T07:33:12.327Z,99273.72
2022-10-17T07:35:56.180Z,99265.78
2022-10-17T07:38:41.040Z,99265.22
2022-10-17T07:41:19.403Z,99280.22
2022-10-17T07:44:00.885Z,99273.13
2022-10-17T07:46:51.682Z,99256.53
2022-10-17T07:49:33.190Z,99264.41
2022-10-17T07:52:24.715Z,99263.00
2022-10-17T07:55:15.643Z,99259.22
2022-10-17T07:57:59.900Z,99252.97
2022-10-17T08:00:49.885Z,99240.31
2022-10-17T08:04:11.262Z,99233.28
2022-10-17T08:07:21.724Z,99227.88
2022-10-17T08:09:59.717Z,99226.25
2022-10-17T08:12:39.768Z,99233.19
2022-10-17T08:15:27.928Z,99241.53
2022-10-17T08:18:20.535Z,99250.75
2022-10-17T08:21:09.076Z,99245.06
2022-10-17T08:23:47.097Z,99240.38
2022-10-17T08:26:31.879Z,99241.38
2022-10-17T08:29:11.144Z,99230.06
2022-10-17T08:31:47.440Z,99223.91
2022-10-17T08:34:47.779Z,99216.63
2022-10-17T08:37:16.316Z,99220.53
2022-10-17T08:39:47.871Z,99221.59
2022-10-17T08:42:32.988Z,99215.97
2022-10-17T08:45:28.395Z,99217.84
2022-10-17T08:48:26.438Z,99217.03
2022-10-17T08:51:08.596Z,99211.94
2022-10-17T08:53:59.234Z,99221.19
2022-10-17T08:56:48.189Z,99212.97
2022-10-17T08:59:27.051Z,99206.31
2022-10-17T09:02:26.888Z,99204.84
2022-10-17T09:05:22.465Z,99210.19
2022-10-17T09:08:47.214Z,99196.47
2022-10-17T09:11:41.273Z,99197.16
2022-10-17T09:14:20.365Z,99212.00
2022-10-17T09:17:40.246Z,99192.00
2022-10-17T09:20:23.355Z,99194.69
2022-10-17T09:23:04.184Z,99189.59
2022-10-17T09:26:01.274Z,99188.75
2022-10-17T09:28:35.890Z,99182.19
2022-10-17T09:31:17.327Z,99178.03
2022-10-17T09:34:08.082Z,99183.81
2022-10-17T09:36:48.080Z,99191.16
2022-10-17T09:39:27.053Z,99182.56
2022-10-17T09:42:10.688Z,99189.69
2022-10-17T09:45:00.497Z,99184.81
2022-10-17T09:48:00.948Z,99187.66
2022-10-17T09:50:44.588Z,99183.25
2022-10-17T09:53:31.443Z,99175.53
2022-10-17T09:56:16.127Z,99189.22
2022-10-17T09:59:00.863Z,99178.75
2022-10-17T10:01:44.681Z,99178.53
2022-10-17T10:04:21.406Z,99183.78
2022-10-17T10:07:05.096Z,99188.09
2022-10-17T10:09:46.627Z,99202.94
2022-10-17T10:12:40.102Z,99188.75
2022-10-17T10:15:53.050Z,99181.69
2022-10-17T10:18:55.368Z,99184.38
2022-10-17T10:21:51.827Z,99183.50
2022-10-17T10:24:44.920Z,99177.84
2022-10-17T10:27:27.718Z,99179.34
2022-10-17T10:30:17.600Z,99178.38
2022-10-17T10:33:22.810Z,99180.03
2022-10-17T10:36:03.366Z,99177.81
2022-10-17T10:38:43.899Z,99182.59
2022-10-17T10:41:17.232Z,99182.53
2022-10-17T10:47:02.840Z,99193.56
2022-10-17T10:49:50.609Z,99193.19
2022-10-17T10:56:31.746Z,99204.56
2022-10-17T10:59:19.783Z,99204.75
2022-10-17T11:01:59.932Z,99200.09
2022-10-17T11:04:43.941Z,99199.88
2022-10-17T11:07:53.281Z,99207.78
2022-10-17T11:10:54.913Z,99192.06
2022-10-17T11:13:44.983Z,99193.38
2022-10-17T11:16:31.824Z,99199.69
2022-10-17T11:19:28.200Z,99191.34
2022-10-17T11:22:04.980Z,99194.88
2022-10-17T11:25:24.542Z,99191.34
2022-10-17T11:28:04.451Z,99189.59
2022-10-17T11:30:52.764Z,99185.75
2022-10-17T11:33:52.853Z,99196.34
2022-10-17T11:37:21.010Z,99196.59
2022-10-17T11:40:08.736Z,99192.84
2022-10-17T11:43:02.131Z,99184.00
2022-10-17T11:45:38.560Z,99182.53
2022-10-17T11:48:20.673Z,99180.53
2022-10-17T11:54:47.038Z,99176.53
2022-10-17T11:57:50.893Z,99187.09
2022-10-17T12:00:52.483Z,99178.91
2022-10-17T12:03:39.558Z,99172.06
2022-10-17T12:06:29.436Z,99182.66
2022-10-17T12:09:04.414Z,99181.25
2022-10-17T12:11:42.933Z,99170.91
2022-10-17T12:17:36.045Z,99172.88
2022-10-17T12:20:31.577Z,99168.88
2022-10-17T12:23:28.768Z,99177.97
2022-10-17T12:26:05.426Z,99159.25
2022-10-17T12:28:53.023Z,99171.44
2022-10-17T12:32:02.249Z,99161.34
2022-10-17T12:34:58.366Z,99159.84
2022-10-17T12:37:47.162Z,99157.59
2022-10-17T12:40:49.092Z,99163.94
2022-10-17T12:43:29.068Z,99168.97
2022-10-17T12:46:01.148Z,99157.38
2022-10-17T12:49:04.528Z,99153.16
2022-10-17T12:52:31.884Z,99148.66
2022-10-17T12:56:07.866Z,99146.38
2022-10-17T12:58:57.726Z,99146.59
2022-10-17T13:01:35.363Z,99137.53
2022-10-17T13:04:53.621Z,99143.84
2022-10-17T13:07:32.792Z,99150.84
2022-10-17T13:10:14.824Z,99148.13
2022-10-17T13:12:47.388Z,99143.81
2022-10-17T13:19:59.544Z,99143.66
2022-10-17T13:22:40.618Z,99144.53
2022-10-17T13:32:46.788Z,99141.59
2022-10-17T13:35:22.033Z,99137.69
2022-10-17T13:37:56.645Z,99132.81
2022-10-17T13:41:01.351Z,99138.25
2022-10-17T13:44:18.110Z,99146.88
2022-10-17T13:50:44.666Z,99149.41
2022-10-17T13:53:32.200Z,99136.66
2022-10-17T13:56:33.325Z,99140.47
2022-10-17T13:59:49.250Z,99132.78
2022-10-17T14:03:00.756Z,99141.94
2022-10-17T14:06:15.944Z,99137.69
2022-10-17T14:09:08.209Z,99139.72
2022-10-17T14:11:47.299Z,99133.56
2022-10-17T14:15:08.824Z,99130.06
2022-10-17T14:18:08.423Z,99125.41
2022-10-17T14:21:37.144Z,99123.66
2022-10-17T14:24:47.769Z,99121.72
2022-10-17T14:27:47.763Z,99113.09
2022-10-17T14:33:28.480Z,99105.22
2022-10-17T14:36:01.110Z,99104.25
2022-10-17T14:38:39.511Z,99099.28
2022-10-17T14:41:43.549Z,99096.22
2022-10-17T14:44:23.075Z,99084.50
2022-10-17T14:47:06.020Z,99083.75
2022-10-17T14:49:44.206Z,99075.41
2022-10-17T14:52:18.280Z,99070.66
2022-10-17T14:54:55.556Z,99077.75
2022-10-17T14:57:28.676Z,99067.34
2022-10-17T14:59:59.433Z,99075.53
2022-10-17T15:02:32.101Z,99073.09
2022-10-17T15:05:07.313Z,99073.91
2022-10-17T15:07:50.077Z,99063.88
2022-10-17T15:10:38.469Z,99065.91
2022-10-17T15:13:27.646Z,99060.59
2022-10-17T15:16:04.159Z,99063.00
2022-10-17T15:18:44.441Z,99043.06
2022-10-17T15:21:26.515Z,99046.75
2022-10-17T15:24:11.485Z,99047.53
2022-10-17T15:29:24.786Z,99032.56
2022-10-17T15:31:55.974Z,99026.09
2022-10-17T15:34:27.682Z,99025.50
2022-10-17T15:37:01.530Z,99019.53
2022-10-17T15:39:32.925Z,99018.88
2022-10-17T15:42:03.765Z,99016.00
2022-10-17T15:44:33.573Z,99020.97
2022-10-17T15:47:04.799Z,99020.19
2022-10-17T15:49:40.803Z,99022.75
2022-10-17T15:52:15.313Z,99014.84
2022-10-17T15:54:44.657Z,99016.47
2022-10-17T15:57:24.469Z,99014.03
2022-10-17T16:00:01.417Z,99014.34
2022-10-17T16:02:43.255Z,99011.78
2022-10-17T16:05:33.595Z,99002.91
2022-10-17T16:08:17.642Z,98990.59
2022-10-17T16:10:48.228Z,98981.63
2022-10-17T16:13:20.543Z,98973.38
2022-10-17T16:15:51.009Z,98970.13
2022-10-17T16:18:23.267Z,98979.19
2022-10-17T16:20:52.672Z,98969.00
2022-10-17T16:23:22.751Z,98967.25
2022-10-17T16:25:53.301Z,98964.28
2022-10-17T16:28:28.536Z,98965.22
2022-10-17T16:31:04.054Z,98952.84
2022-10-17T16:33:34.631Z,98951.59
2022-10-17T16:36:05.107Z,98943.38
2022-10-17T16:38:43.113Z,98946.75
2022-10-17T16:41:24.870Z,98938.69
2022-10-17T16:43:56.206Z,98937.09
2022-10-17T16:46:28.454Z,98930.47
2022-10-17T16:49:00.998Z,98916.63
2022-10-17T16:51:31.950Z,98918.25
2022-10-17T16:54:01.476Z,98909.44
2022-10-17T16:56:32.269Z,98907.53
2022-10-17T16:59:02.914Z,98924.03
2022-10-17T17:01:32.770Z,98907.28
2022-10-17T17:04:05.000Z,98893.09
2022-10-17T17:06:39.656Z,98883.09
2022-10-17T17:09:12.668Z,98884.56
2022-10-17T17:11:42.530Z,98883.22
2022-10-17T17:14:12.025Z,98884.91
2022-10-17T17:16:46.399Z,98878.16
2022-10-17T17:19:18.719Z,98874.88
2022-10-17T17:21:53.228Z,98869.88
2022-10-17T17:24:27.032Z,98862.19
2022-10-17T17:27:00.039Z,98855.16
2022-10-17T17:29:30.892Z,98860.53
2022-10-17T17:32:03.538Z,98854.31
2022-10-17T17:34:36.692Z,98842.09
2022-10-17T17:37:10.617Z,98845.94
2022-10-17T17:39:43.293Z,98849.00
2022-10-17T17:42:12.526Z,98845.03
2022-10-17T17:44:42.854Z,98846.97
2022-10-17T17:47:12.769Z,98844.25
2022-10-17T17:49:43.196Z,98830.91
2022-10-17T17:52:13.024Z,98832.50
2022-10-17T17:54:42.454Z,98833.28
2022-10-17T17:57:10.687Z,98819.75
2022-10-17T17:59:42.893Z,98810.09
2022-10-17T18:02:12.592Z,98794.13
2022-10-17T18:04:42.922Z,98806.22
2022-10-17T18:07:12.090Z,98805.63
2022-10-17T18:09:42.603Z,98790.41
2022-10-17T18:12:11.591Z,98792.06
2022-10-17T18:14:41.286Z,98806.06
2022-10-17T18:17:10.734Z,98794.97
2022-10-17T18:19:40.875Z,98779.03
2022-10-17T18:22:10.707Z,98780.28
2022-10-17T18:24:43.601Z,98773.88
2022-10-17T18:27:16.985Z,98769.56
2022-10-17T18:29:49.311Z,98765.91
2022-10-17T18:32:20.089Z,98765.78
2022-10-17T18:34:50.613Z,98757.72
2022-10-17T18:37:20.630Z,98755.97
2022-10-17T18:39:52.254Z,98753.50
2022-10-17T18:42:23.355Z,98758.44
2022-10-17T18:44:55.408Z,98747.44
2022-10-17T18:47:28.115Z,98744.13
2022-10-17T18:49:57.609Z,98749.16
2022-10-17T18:52:44.297Z,98751.94
2022-10-17T18:55:21.207Z,98751.00
2022-10-17T18:57:52.634Z,98730.19
2022-10-17T19:00:22.950Z,98729.31
2022-10-17T19:02:56.450Z,98731.38
2022-10-17T19:05:27.882Z,98732.78
2022-10-17T19:07:57.156Z,98715.53
2022-10-17T19:10:28.350Z,98727.03
2022-10-17T19:12:56.705Z,98725.75
2022-10-17T19:15:26.884Z,98711.00
2022-10-17T19:17:56.401Z,98720.31
2022-10-17T19:20:26.065Z,98726.66
2022-10-17T19:22:55.013Z,98737.81
2022-10-17T19:25:28.107Z,98738.91
2022-10-17T19:28:00.926Z,98723.00
2022-10-17T19:30:31.395Z,98724.13
2022-10-17T19:33:01.343Z,98730.13
2022-10-17T19:35:32.456Z,98727.53
2022-10-17T19:38:00.827Z,98721.59
2022-10-17T19:40:29.452Z,98733.50
2022-10-17T19:43:01.031Z,98727.88
2022-10-17T19:45:30.886Z,98728.19
2022-10-17T19:48:00.271Z,98734.31
2022-10-17T19:50:28.839Z,98734.94
2022-10-17T19:53:12.594Z,98755.22
2022-10-17T19:55:51.048Z,98758.75
2022-10-17T19:58:20.213Z,98755.88
2022-10-17T20:00:53.313Z,98768.22
2022-10-17T20:03:32.837Z,98761.09
2022-10-17T20:06:03.333Z,98763.34
2022-10-17T20:08:33.169Z,98763.34
2022-10-17T20:11:28.230Z,98767.84
2022-10-17T20:14:04.448Z,98756.44
2022-10-17T20:16:45.463Z,98769.91
2022-10-17T20:19:21.383Z,98764.63
2022-10-17T20:21:52.419Z,98766.19
2022-10-17T20:24:24.362Z,98770.53
2022-10-17T20:26:55.396Z,98774.97
2022-10-17T20:29:31.518Z,98768.38
2022-10-17T20:32:03.980Z,98770.28
2022-10-17T20:34:48.567Z,98766.97
2022-10-17T20:37:21.139Z,98769.81
2022-10-17T20:40:16.574Z,98768.22
2022-10-17T20:42:53.513Z,98770.53
2022-10-17T20:45:43.715Z,98772.16
2022-10-17T20:48:21.672Z,98779.03
2022-10-17T20:50:56.365Z,98777.09
2022-10-17T20:53:36.915Z,98777.91
2022-10-17T20:57:05.317Z,98768.34
2022-10-17T20:59:49.358Z,98765.19
2022-10-17T21:02:24.000Z,98773.25
2022-10-17T21:04:54.973Z,98770.91
2022-10-17T21:07:32.655Z,98768.47
2022-10-17T21:10:35.771Z,98769.72
2022-10-17T21:13:16.991Z,98754.66
2022-10-17T21:15:51.210Z,98758.00
2022-10-17T21:18:31.965Z,98753.00
2022-10-17T21:21:31.699Z,98747.94
2022-10-17T21:24:12.698Z,98742.38
2022-10-17T21:29:44.862Z,98738.97
2022-10-17T21:32:32.151Z,98737.19
2022-10-17T21:35:14.817Z,98734.59
2022-10-17T21:37:46.783Z,98729.06
2022-10-17T21:40:21.327Z,98724.13
2022-10-17T21:48:11.122Z,98732.63
2022-10-17T21:50:57.459Z,98734.84
2022-10-17T21:53:47.277Z,98739.91
2022-10-17T21:56:20.007Z,98739.28
2022-10-17T21:58:57.020Z,98736.06
2022-10-17T22:01:44.304Z,98746.72
2022-10-17T22:04:21.294Z,98742.97
2022-10-17T22:06:56.442Z,98734.31
2022-10-17T22:09:29.942Z,98749.50
2022-10-17T22:12:03.931Z,98754.22
2022-10-17T22:14:47.162Z,98750.59
2022-10-17T22:17:23.923Z,98761.75
2022-10-17T22:20:01.466Z,98760.97
2022-10-17T22:22:36.027Z,98764.25
2022-10-17T22:25:18.853Z,98761.03
2022-10-17T22:27:51.368Z,98761.22
2022-10-17T22:30:22.393Z,98763.09
2022-10-17T22:33:00.982Z,98762.44
2022-10-17T22:35:33.447Z,98769.94
2022-10-17T22:38:20.652Z,98775.47
2022-10-17T22:40:53.580Z,98782.13
2022-10-17T22:47:17.805Z,98778.56
2022-10-17T22:50:04.683Z,98773.75
2022-10-17T22:52:56.715Z,98777.50
2022-10-17T22:55:32.468Z,98785.88
2022-10-17T22:58:05.645Z,98784.44
2022-10-17T23:00:49.473Z,98787.66
2022-10-17T23:03:26.488Z,98793.94
2022-10-17T23:06:13.684Z,98799.50
2022-10-17T23:08:56.063Z,98798.81
2022-10-17T23:11:28.738Z,98809.50
2022-10-17T23:14:15.042Z,98811.66
2022-10-17T23:16:57.310Z,98822.00
2022-10-17T23:19:27.470Z,98823.53
2022-10-17T23:21:59.916Z,98819.44
2022-10-17T23:24:28.946Z,98827.31
2022-10-17T23:27:00.431Z,98827.09
2022-10-17T23:31:00.947Z,98833.53
2022-10-17T23:34:28.814Z,98863.16
2022-10-17T23:37:01.485Z,98875.38
2022-10-17T23:39:47.197Z,98880.41
2022-10-17T23:42:19.290Z,98869.84
2022-10-17T23:44:50.741Z,98876.47
2022-10-17T23:47:23.199Z,98897.75
2022-10-17T23:49:52.960Z,98911.44
2022-10-17T23:52:24.970Z,98909.16
2022-10-17T23:54:56.629Z,98917.94
2022-10-17T23:57:27.154Z,98903.38
